Time;durP1;ratioP1;P1;durP2;ratioP2;P2;SDS_P1;SDS_P2;PMS_P1;PMS_P2;Temp;Humidity;BMP_temperature;BMP_pressure;BME280_temperature;BME280_humidity;BME280_pressure;Samples;Min_cycle;Max_cycle;Signal;HPM_P1;HPM_P2
2021/04/13 00:07:50;;;;;;;13.30;5.45;;;;;;;3.82;100.00;101210.70;714438;1206;114535;-72
2021/04/13 00:22:52;;;;;;;7.98;4.50;;;;;;;3.73;100.00;101215.48;714222;1200;113823;-73
2021/04/13 00:38:29;;;;;;;8.08;5.23;;;;;;;3.77;100.00;101211.83;714277;1200;115224;-74
2021/04/13 00:53:33;;;;;;;9.15;4.28;;;;;;;3.79;100.00;101204.83;714055;1200;113847;-74
2021/04/13 01:08:39;;;;;;;5.98;4.00;;;;;;;3.98;100.00;101223.83;717773;1165;115194;-72
2021/04/13 01:23:54;;;;;;;13.37;6.37;;;;;;;3.97;100.00;101234.29;715353;1167;113641;-75
2021/04/13 01:39:06;;;;;;;13.90;5.33;;;;;;;4.02;100.00;101227.14;714287;1177;114486;-75
2021/04/13 01:54:14;;;;;;;7.68;4.75;;;;;;;3.97;100.00;101229.96;714620;1183;113699;-76
2021/04/13 02:09:34;;;;;;;14.67;6.10;;;;;;;3.92;100.00;101210.28;714345;1199;113770;-76
2021/04/13 02:24:38;;;;;;;10.90;5.15;;;;;;;3.94;100.00;101218.86;714364;1200;113682;-76
2021/04/13 02:39:41;;;;;;;8.00;5.65;;;;;;;3.85;100.00;101220.11;714341;1183;114118;-76
2021/04/13 02:54:59;;;;;;;10.10;5.07;;;;;;;3.77;100.00;101228.23;714321;1177;113563;-76
2021/04/13 03:10:09;;;;;;;9.37;4.63;;;;;;;3.75;100.00;101232.67;714709;1199;115674;-74
2021/04/13 03:25:13;;;;;;;7.40;4.00;;;;;;;3.80;100.00;101232.45;713851;1176;114388;-75
2021/04/13 03:40:18;;;;;;;13.63;6.43;;;;;;;3.92;100.00;101233.66;714110;1202;113599;-76
2021/04/13 03:55:23;;;;;;;14.95;6.68;;;;;;;3.92;100.00;101251.83;714052;1178;113884;-76
2021/04/13 04:10:47;;;;;;;14.35;6.28;;;;;;;4.05;100.00;101247.80;714345;1200;113978;-76
2021/04/13 04:25:53;;;;;;;7.80;4.50;;;;;;;4.16;100.00;101258.52;714454;1199;114710;-75
2021/04/13 04:41:05;;;;;;;7.33;3.58;;;;;;;4.17;100.00;101256.78;714647;1184;114573;-76
2021/04/13 04:56:12;;;;;;;10.08;4.13;;;;;;;4.16;100.00;101252.49;713770;1199;113962;-75
2021/04/13 05:11:14;;;;;;;11.63;3.78;;;;;;;4.34;100.00;101258.58;713762;1176;114035;-77
2021/04/13 05:26:16;;;;;;;22.38;6.98;;;;;;;4.57;100.00;101274.88;713612;1203;115430;-77
2021/04/13 05:41:17;;;;;;;10.28;5.33;;;;;;;4.69;100.00;101294.25;713810;1199;114308;-77
2021/04/13 05:56:30;;;;;;;12.73;4.98;;;;;;;4.98;100.00;101303.25;713823;1199;115326;-79
2021/04/13 06:11:32;;;;;;;14.67;6.63;;;;;;;5.31;100.00;101313.75;714553;1200;114535;-75
2021/04/13 06:26:37;;;;;;;11.75;4.80;;;;;;;5.59;100.00;101316.73;714364;1199;114922;-76
2021/04/13 06:42:29;;;;;;;17.23;8.00;;;;;;;5.75;100.00;101316.80;714390;1200;114576;-75
2021/04/13 06:57:59;;;;;;;25.78;9.78;;;;;;;6.15;99.42;101319.98;714159;1180;114308;-77
2021/04/13 07:13:44;;;;;;;24.57;10.73;;;;;;;6.69;95.92;101337.93;714312;1177;114124;-74
2021/04/13 07:29:13;;;;;;;24.43;10.88;;;;;;;6.98;91.82;101340.66;714561;1199;113977;-79
2021/04/13 07:44:23;;;;;;;16.67;6.27;;;;;;;7.07;89.60;101349.75;716120;1178;114003;-87
2021/04/13 07:59:33;;;;;;;57.28;23.40;;;;;;;6.80;86.25;101352.98;716956;1199;114615;-88
2021/04/13 08:14:38;;;;;;;243.57;81.40;;;;;;;6.62;83.63;101354.82;716961;1177;114094;-86
2021/04/13 08:29:49;;;;;;;180.53;61.10;;;;;;;6.45;83.44;101346.16;715882;1187;114330;-86
2021/04/13 08:45:00;;;;;;;374.00;130.80;;;;;;;6.53;81.45;101347.50;716846;1177;114346;-86
2021/04/13 09:00:21;;;;;;;210.75;67.70;;;;;;;6.74;77.57;101367.17;716114;1185;115117;-79
2021/04/13 09:15:26;;;;;;;101.75;34.25;;;;;;;7.29;76.42;101362.43;714402;1177;114122;-75
2021/04/13 09:30:40;;;;;;;58.00;23.73;;;;;;;8.34;73.90;101358.87;714386;1193;113958;-75
2021/04/13 09:46:01;;;;;;;27.98;12.55;;;;;;;8.18;69.16;101355.50;715288;1200;113314;-80
2021/04/13 10:01:26;;;;;;;12.90;6.38;;;;;;;8.98;66.23;101332.22;714993;1177;114261;-78
2021/04/13 10:17:06;;;;;;;16.15;7.78;;;;;;;9.63;67.18;101317.47;725312;1197;114024;-79
2021/04/13 10:32:35;;;;;;;15.58;7.30;;;;;;;9.55;61.12;101315.36;717488;1199;114992;-79
2021/04/13 10:47:59;;;;;;;13.85;5.90;;;;;;;9.71;60.01;101306.47;716643;1200;114028;-82
2021/04/13 11:03:20;;;;;;;10.35;4.43;;;;;;;9.83;59.15;101285.52;716177;1200;114205;-83
2021/04/13 11:18:52;;;;;;;11.88;5.45;;;;;;;10.73;58.36;101284.48;715162;1202;113319;-77
2021/04/13 11:34:24;;;;;;;7.08;4.60;;;;;;;10.07;54.80;101283.90;715965;1181;114402;-77
2021/04/13 11:49:42;;;;;;;5.93;3.40;;;;;;;9.95;53.73;101281.20;714959;1177;113791;-77
2021/04/13 12:04:47;;;;;;;5.20;3.65;;;;;;;9.77;52.04;101264.97;717205;1178;113888;-77
2021/04/13 12:20:20;;;;;;;8.93;4.35;;;;;;;10.42;52.32;101260.45;715183;1177;114101;-77
2021/04/13 12:35:54;;;;;;;28.53;11.50;;;;;;;11.03;53.28;101253.45;714789;1200;114753;-78
2021/04/13 12:51:02;;;;;;;33.70;12.30;;;;;;;13.00;52.88;101239.79;715991;1176;117742;-77
2021/04/13 13:06:24;;;;;;;13.17;10.17;;;;;;;11.92;51.04;101222.15;716591;1177;114649;-82
2021/04/13 13:21:47;;;;;;;20.95;9.30;;;;;;;14.07;49.89;101221.03;715692;1199;114059;-81
2021/04/13 13:36:50;;;;;;;16.37;8.53;;;;;;;12.43;48.11;101224.23;716101;1200;113988;-83
2021/04/13 13:52:06;;;;;;;10.38;6.43;;;;;;;12.64;48.10;101204.98;715869;1203;114057;-81
2021/04/13 14:07:10;;;;;;;10.98;5.78;;;;;;;11.54;49.05;101203.15;717038;1200;114184;-84
2021/04/13 14:22:13;;;;;;;9.78;4.45;;;;;;;11.64;49.98;101179.63;715649;1200;113844;-82
2021/04/13 14:37:16;;;;;;;12.13;8.43;;;;;;;11.52;47.60;101183.20;715543;1199;113788;-81
2021/04/13 14:52:19;;;;;;;20.95;8.78;;;;;;;13.15;48.05;101191.06;715190;1199;115068;-83
2021/04/13 15:07:20;;;;;;;36.23;14.80;;;;;;;12.11;49.31;101179.46;717903;1176;113947;-85
2021/04/13 15:22:24;;;;;;;24.77;13.03;;;;;;;11.56;49.82;101179.38;715562;1199;114548;-88
2021/04/13 15:37:43;;;;;;;52.33;22.63;;;;;;;10.70;49.84;101166.59;715481;1199;116099;-89
2021/04/13 15:52:46;;;;;;;28.13;10.47;;;;;;;10.30;50.04;101149.36;715307;1200;114046;-87
2021/04/13 16:07:48;;;;;;;20.50;9.03;;;;;;;10.19;50.86;101151.09;715576;1200;115403;-86
2021/04/13 16:22:50;;;;;;;38.20;20.45;;;;;;;9.88;51.90;101148.89;715753;1200;114076;-83
2021/04/13 16:37:54;;;;;;;33.70;13.23;;;;;;;9.73;51.63;101129.88;715348;1176;114229;-82
2021/04/13 16:52:58;;;;;;;56.00;22.65;;;;;;;9.54;53.35;101119.88;715151;1199;113973;-82
2021/04/13 17:08:18;;;;;;;40.70;19.50;;;;;;;9.07;53.47;101126.63;715339;1175;114243;-82
2021/04/13 17:23:31;;;;;;;;;;;;;;;8.66;53.29;101131.91;715397;1205;113890;-82
2021/04/13 17:38:58;;;;;;;284.80;102.50;;;;;;;8.36;54.81;101129.52;715640;1200;99817;-82
2021/04/13 17:54:04;;;;;;;77.20;32.40;;;;;;;7.79;55.76;101154.05;715340;1199;114610;-82
2021/04/13 18:09:12;;;;;;;44.38;19.28;;;;;;;7.28;58.14;101175.42;715706;1199;114273;-82
2021/04/13 18:24:26;;;;;;;39.75;14.75;;;;;;;6.98;61.04;101205.86;714935;1185;113836;-82
2021/04/13 18:39:30;;;;;;;48.97;20.87;;;;;;;6.88;64.16;101203.88;716516;1203;113654;-79
2021/04/13 18:54:40;;;;;;;39.58;19.05;;;;;;;6.76;66.00;101215.86;717046;1199;114133;-82
2021/04/13 19:09:53;;;;;;;52.70;19.55;;;;;;;6.79;66.98;101215.67;715117;1200;113808;-82
2021/04/13 19:25:17;;;;;;;83.48;30.80;;;;;;;6.74;68.06;101221.13;714729;1200;115136;-75
2021/04/13 19:40:22;;;;;;;76.98;32.48;;;;;;;6.57;68.68;101216.05;714535;1199;114766;-75
2021/04/13 19:55:33;;;;;;;36.57;17.53;;;;;;;6.22;69.47;101205.84;714271;1199;113875;-80
2021/04/13 20:10:39;;;;;;;18.70;9.10;;;;;;;6.07;70.29;101197.07;714657;1203;113671;-76
2021/04/13 20:25:48;;;;;;;39.85;17.85;;;;;;;5.99;71.22;101198.34;715523;1200;113965;-78
2021/04/13 20:41:04;;;;;;;31.48;15.88;;;;;;;5.81;72.55;101207.95;715930;1176;114240;-78
2021/04/13 20:56:20;;;;;;;47.10;17.07;;;;;;;5.59;72.90;101210.01;715742;1176;113804;-78
2021/04/13 21:11:25;;;;;;;27.00;9.47;;;;;;;5.40;74.13;101203.16;715344;1200;114719;-78
2021/04/13 21:26:36;;;;;;;30.30;10.50;;;;;;;5.38;75.48;101204.98;714760;1200;113510;-79
2021/04/13 21:41:59;;;;;;;25.50;9.03;;;;;;;5.26;77.14;101206.45;714970;1174;114189;-78
2021/04/13 21:57:25;;;;;;;34.37;11.07;;;;;;;5.18;76.84;101206.02;715041;1200;114109;-77
2021/04/13 22:12:29;;;;;;;41.00;14.15;;;;;;;4.92;77.57;101197.78;715830;1199;114732;-76
2021/04/13 22:27:42;;;;;;;39.00;14.95;;;;;;;4.69;79.05;101196.30;718026;1199;113664;-77
2021/04/13 22:42:47;;;;;;;44.23;15.57;;;;;;;4.42;80.14;101193.27;718466;1200;115195;-76
2021/04/13 22:58:01;;;;;;;31.00;12.13;;;;;;;4.20;80.04;101193.43;714585;1200;114226;-76
2021/04/13 23:13:03;;;;;;;28.00;10.80;;;;;;;4.16;81.86;101200.55;714209;1203;113896;-76
2021/04/13 23:28:05;;;;;;;23.33;9.57;;;;;;;4.26;83.10;101183.63;714203;1203;115637;-75
2021/04/13 23:43:06;;;;;;;22.48;9.30;;;;;;;4.12;83.89;101171.27;714264;1199;112904;-75
2021/04/13 23:58:08;;;;;;;26.63;10.17;;;;;;;4.11;83.61;101171.34;714219;1189;113721;-76
